Time;durP1;ratioP1;P1;durP2;ratioP2;P2;SDS_P1;SDS_P2;PMS_P1;PMS_P2;Temp;Humidity;BMP_temperature;BMP_pressure;BME280_temperature;BME280_humidity;BME280_pressure;Samples;Min_cycle;Max_cycle;Signal;HPM_P1;HPM_P2
2021/06/18 00:01:57;;;;;;;8.50;6.40;;;23.80;99.90;;;;;;5094106;28;20951;-71
2021/06/18 00:04:23;;;;;;;7.90;7.10;;;23.80;99.90;;;;;;5093751;28;20273;-71
2021/06/18 00:06:48;;;;;;;9.27;6.30;;;23.80;99.90;;;;;;5094032;28;20165;-71
2021/06/18 00:09:14;;;;;;;7.93;7.20;;;23.70;99.90;;;;;;5091996;28;20170;-71
2021/06/18 00:11:41;;;;;;;7.87;6.23;;;23.70;99.90;;;;;;5093851;28;20241;-71
2021/06/18 00:14:06;;;;;;;7.33;6.63;;;23.70;99.90;;;;;;5093561;28;20193;-71
2021/06/18 00:16:33;;;;;;;10.43;6.90;;;23.70;99.90;;;;;;5093829;28;20404;-71
2021/06/18 00:18:59;;;;;;;7.87;7.17;;;23.60;99.90;;;;;;5093493;28;20234;-71
2021/06/18 00:21:25;;;;;;;10.93;7.93;;;23.60;99.90;;;;;;5093643;28;20473;-71
2021/06/18 00:23:50;;;;;;;8.50;7.70;;;23.60;99.90;;;;;;5093237;28;20424;-71
2021/06/18 00:26:16;;;;;;;9.83;7.33;;;23.60;99.90;;;;;;5092584;28;20179;-71
2021/06/18 00:28:42;;;;;;;8.13;7.33;;;23.60;99.90;;;;;;5093386;28;20244;-71
2021/06/18 00:31:09;;;;;;;12.30;7.70;;;23.50;99.90;;;;;;5093613;28;20191;-71
2021/06/18 00:33:35;;;;;;;10.90;7.97;;;23.50;99.90;;;;;;5093236;28;20409;-71
2021/06/18 00:36:00;;;;;;;8.57;7.67;;;23.40;99.90;;;;;;5093408;28;20911;-71
2021/06/18 00:38:26;;;;;;;8.00;7.30;;;23.40;99.90;;;;;;5093292;28;20228;-71
2021/06/18 00:40:52;;;;;;;7.83;7.10;;;23.40;99.90;;;;;;5093039;28;20163;-71
2021/06/18 00:43:17;;;;;;;11.07;7.57;;;23.30;99.90;;;;;;5092286;28;20282;-71
2021/06/18 00:45:43;;;;;;;8.33;7.53;;;23.30;99.90;;;;;;5092863;28;20214;-71
2021/06/18 00:48:09;;;;;;;9.03;7.67;;;23.40;99.90;;;;;;5093531;28;20192;-71
2021/06/18 00:50:35;;;;;;;9.37;8.43;;;23.30;99.90;;;;;;5093331;28;20615;-71
2021/06/18 00:53:01;;;;;;;10.40;7.53;;;23.20;99.90;;;;;;5092998;28;20403;-71
2021/06/18 00:55:27;;;;;;;8.47;7.17;;;23.20;99.90;;;;;;5092997;28;20162;-71
2021/06/18 00:57:53;;;;;;;12.77;7.27;;;23.20;99.90;;;;;;5092845;28;20408;-71
2021/06/18 01:00:19;;;;;;;11.47;8.03;;;23.20;99.90;;;;;;5092085;28;20194;-71
2021/06/18 01:02:45;;;;;;;11.23;8.13;;;23.20;99.90;;;;;;5092715;28;20912;-71
2021/06/18 01:05:15;;;;;;;8.17;7.30;;;23.10;99.90;;;;;;5092766;28;20437;-71
2021/06/18 01:10:34;;;;;;;8.70;7.80;;;23.10;99.90;;;;;;5126168;27;20330;-71
2021/06/18 01:15:50;;;;;;;8.80;7.90;;;23.10;99.90;;;;;;5146832;27;20289;-72
2021/06/18 01:18:23;;;;;;;10.10;8.90;;;23.10;99.90;;;;;;5116845;28;20483;-72
2021/06/18 01:21:18;;;;;;;11.10;8.30;;;23.00;99.90;;;;;;5110283;28;20467;-72
2021/06/18 01:23:53;;;;;;;11.67;9.80;;;23.00;99.90;;;;;;5109437;28;20384;-72
2021/06/18 01:26:32;;;;;;;9.70;8.80;;;23.00;99.90;;;;;;5110550;28;20818;-72
2021/06/18 01:29:00;;;;;;;10.57;8.60;;;23.00;99.90;;;;;;5110427;28;20922;-71
2021/06/18 01:31:30;;;;;;;9.47;8.57;;;23.00;99.90;;;;;;5110337;28;20400;-71
2021/06/18 01:34:04;;;;;;;10.00;8.90;;;23.00;99.90;;;;;;5110684;28;20485;-72
2021/06/18 01:36:31;;;;;;;9.07;8.27;;;23.00;99.90;;;;;;5110210;28;20479;-72
2021/06/18 01:38:59;;;;;;;14.47;10.40;;;22.90;99.90;;;;;;5110099;28;20889;-72
2021/06/18 01:41:30;;;;;;;10.77;9.40;;;22.90;99.90;;;;;;5116298;28;20426;-71
2021/06/18 01:43:58;;;;;;;10.93;9.60;;;22.90;99.90;;;;;;5130352;28;20412;-72
2021/06/18 01:46:28;;;;;;;12.37;8.80;;;22.90;99.90;;;;;;5130322;28;20391;-72
2021/06/18 01:48:57;;;;;;;8.90;7.77;;;22.90;99.90;;;;;;5130631;28;20482;-72
2021/06/18 01:51:26;;;;;;;14.63;9.50;;;22.90;99.90;;;;;;5122475;28;20416;-72
2021/06/18 01:53:54;;;;;;;10.70;9.20;;;22.80;99.90;;;;;;5108305;28;20440;-72
2021/06/18 01:56:20;;;;;;;11.20;9.60;;;22.80;99.90;;;;;;5109138;28;20413;-72
2021/06/18 01:58:50;;;;;;;11.00;9.90;;;22.80;99.90;;;;;;5109578;28;20446;-72
2021/06/18 02:01:18;;;;;;;11.47;9.57;;;22.70;99.90;;;;;;5109682;28;20427;-71
2021/06/18 02:03:45;;;;;;;10.90;9.80;;;22.70;99.90;;;;;;5109573;28;20909;-72
2021/06/18 02:06:11;;;;;;;10.70;9.70;;;22.70;99.90;;;;;;5109373;28;20418;-72
2021/06/18 02:08:39;;;;;;;9.90;9.00;;;22.70;99.90;;;;;;5110040;28;20447;-72
2021/06/18 02:11:05;;;;;;;10.70;9.60;;;22.70;99.90;;;;;;5109855;28;20468;-72
2021/06/18 02:13:34;;;;;;;12.33;9.80;;;22.70;99.90;;;;;;5109089;28;20472;-71
2021/06/18 02:16:00;;;;;;;10.93;9.90;;;22.60;99.90;;;;;;5109543;28;20303;-72
2021/06/18 02:18:28;;;;;;;9.83;8.83;;;22.60;99.90;;;;;;5109156;28;20396;-71
2021/06/18 02:20:56;;;;;;;11.73;9.93;;;22.60;99.90;;;;;;5109042;28;20400;-69
2021/06/18 02:23:27;;;;;;;11.23;10.17;;;22.60;99.90;;;;;;5109042;28;20400;-69
2021/06/18 02:25:52;;;;;;;10.60;9.60;;;22.60;99.90;;;;;;5102947;28;20882;-69
2021/06/18 02:28:20;;;;;;;12.23;11.03;;;22.50;99.90;;;;;;5095454;28;20474;-69
2021/06/18 02:30:46;;;;;;;10.50;9.43;;;22.50;99.90;;;;;;5095572;28;20155;-69
2021/06/18 02:33:12;;;;;;;11.73;10.50;;;22.50;99.90;;;;;;5095287;28;20870;-69
2021/06/18 02:35:40;;;;;;;11.43;10.43;;;22.50;99.90;;;;;;5095229;28;20881;-69
2021/06/18 02:38:10;;;;;;;10.83;9.80;;;22.40;99.90;;;;;;5095823;28;20404;-69
2021/06/18 02:40:37;;;;;;;11.83;10.40;;;22.50;99.90;;;;;;5095381;28;20617;-69
2021/06/18 02:43:03;;;;;;;11.20;10.10;;;22.50;99.90;;;;;;5102505;28;20436;-69
2021/06/18 02:45:29;;;;;;;11.43;10.43;;;22.50;99.90;;;;;;5095192;28;20763;-69
2021/06/18 03:01:30;;;;;;;12.50;10.00;;;22.30;99.90;;;;;;5147095;27;20298;-70
2021/06/18 03:03:59;;;;;;;10.60;9.50;;;22.30;99.90;;;;;;5130844;28;20395;-69
2021/06/18 03:06:26;;;;;;;13.77;11.07;;;22.30;99.90;;;;;;5130896;28;20743;-69
2021/06/18 03:08:57;;;;;;;14.50;12.40;;;22.30;99.90;;;;;;5130917;27;20411;-69
2021/06/18 03:11:28;;;;;;;12.70;10.77;;;22.30;99.90;;;;;;5130768;27;20889;-69
2021/06/18 03:13:56;;;;;;;12.83;10.47;;;22.20;99.90;;;;;;5131009;27;20387;-69
2021/06/18 03:16:23;;;;;;;13.37;12.17;;;22.20;99.90;;;;;;5123907;27;20418;-69
2021/06/18 03:18:51;;;;;;;12.33;11.27;;;22.20;99.90;;;;;;5110232;28;20404;-69
2021/06/18 03:21:17;;;;;;;12.40;11.30;;;22.20;99.90;;;;;;5109783;28;20448;-69
2021/06/18 03:23:44;;;;;;;12.67;11.40;;;22.20;99.90;;;;;;5109998;28;20408;-69
2021/06/18 03:26:11;;;;;;;13.07;11.77;;;22.20;99.90;;;;;;5110048;28;20388;-69
2021/06/18 03:28:38;;;;;;;14.37;11.93;;;22.20;99.90;;;;;;5109892;28;20414;-69
2021/06/18 03:31:07;;;;;;;13.33;11.50;;;22.20;99.90;;;;;;5110501;28;20491;-69
2021/06/18 03:33:32;;;;;;;14.60;12.80;;;22.20;99.90;;;;;;5110324;28;20416;-69
2021/06/18 03:35:59;;;;;;;13.13;12.03;;;22.20;99.90;;;;;;5109856;28;20427;-69
2021/06/18 03:38:25;;;;;;;12.50;11.43;;;22.10;99.90;;;;;;5110105;28;20154;-69
2021/06/18 03:40:50;;;;;;;14.13;12.83;;;22.10;99.90;;;;;;5110792;28;20432;-69
2021/06/18 03:43:16;;;;;;;17.57;12.97;;;22.10;99.90;;;;;;5130015;28;20414;-69
2021/06/18 03:45:46;;;;;;;13.57;12.07;;;22.10;99.90;;;;;;5130483;27;20203;-69
2021/06/18 03:48:13;;;;;;;12.50;11.30;;;22.20;99.90;;;;;;5130004;28;20158;-69
2021/06/18 03:50:39;;;;;;;15.83;12.90;;;22.20;99.90;;;;;;5129158;28;20410;-69
2021/06/18 03:53:08;;;;;;;14.67;13.40;;;22.10;99.90;;;;;;5129975;27;20392;-69
2021/06/18 03:55:34;;;;;;;14.10;12.70;;;22.10;99.90;;;;;;5129797;27;20154;-69
2021/06/18 03:58:03;;;;;;;14.17;12.70;;;22.10;99.90;;;;;;5129639;28;20413;-69
2021/06/18 04:00:32;;;;;;;15.17;13.67;;;22.10;99.90;;;;;;5129660;27;20563;-69
2021/06/18 04:02:58;;;;;;;12.60;11.50;;;22.20;99.90;;;;;;5129810;28;20392;-69
2021/06/18 04:05:26;;;;;;;14.83;13.47;;;22.10;99.90;;;;;;5129470;28;20411;-69
2021/06/18 04:07:53;;;;;;;14.77;13.37;;;22.20;99.90;;;;;;5128907;28;20915;-69
2021/06/18 04:10:19;;;;;;;14.40;12.97;;;22.20;99.90;;;;;;5129527;28;20388;-69
2021/06/18 04:12:48;;;;;;;14.67;13.37;;;22.20;99.90;;;;;;5116492;28;20403;-69
2021/06/18 04:15:14;;;;;;;14.40;13.20;;;22.20;99.90;;;;;;5115871;28;20428;-69
2021/06/18 04:17:40;;;;;;;13.53;12.23;;;22.20;99.90;;;;;;5115851;28;20396;-69
2021/06/18 04:20:07;;;;;;;14.73;13.20;;;22.20;99.90;;;;;;5115514;28;20807;-69
2021/06/18 04:22:34;;;;;;;14.43;13.10;;;22.20;99.90;;;;;;5115646;28;20533;-69
2021/06/18 04:25:01;;;;;;;14.63;12.93;;;22.20;99.90;;;;;;5114807;28;20465;-69
2021/06/18 04:27:26;;;;;;;14.03;12.63;;;22.30;99.90;;;;;;5116147;28;20486;-69
2021/06/18 04:29:52;;;;;;;12.93;11.73;;;22.30;99.90;;;;;;5115601;28;20436;-69
2021/06/18 04:32:18;;;;;;;14.10;12.70;;;22.30;99.90;;;;;;5115526;28;20694;-69
2021/06/18 04:34:45;;;;;;;15.57;12.77;;;22.30;99.90;;;;;;5115459;28;20162;-69
2021/06/18 04:37:11;;;;;;;15.70;13.67;;;22.30;99.90;;;;;;5115429;28;20392;-69
2021/06/18 04:39:37;;;;;;;15.23;12.90;;;22.30;99.90;;;;;;5115401;28;20514;-69
2021/06/18 04:42:04;;;;;;;13.10;11.87;;;22.30;99.90;;;;;;5114421;28;20173;-69
2021/06/18 04:44:30;;;;;;;18.33;13.40;;;22.30;99.90;;;;;;5115310;28;20158;-69
2021/06/18 04:46:56;;;;;;;18.33;13.60;;;22.30;99.90;;;;;;5115364;28;20441;-69
2021/06/18 04:49:21;;;;;;;15.07;13.53;;;22.30;99.90;;;;;;5115386;28;20416;-69
2021/06/18 04:51:47;;;;;;;14.10;12.60;;;22.30;99.90;;;;;;5114915;28;20273;-69
2021/06/18 04:54:12;;;;;;;15.10;13.67;;;22.40;99.90;;;;;;5115067;28;20157;-69
2021/06/18 04:56:40;;;;;;;17.20;14.87;;;22.40;99.90;;;;;;5115138;28;20154;-69
2021/06/18 04:59:06;;;;;;;15.30;13.30;;;22.40;99.90;;;;;;5114053;28;20197;-69
2021/06/18 05:01:32;;;;;;;20.57;15.40;;;22.40;99.90;;;;;;5114935;28;20397;-69
2021/06/18 05:03:58;;;;;;;15.57;14.07;;;22.50;99.90;;;;;;5114947;28;20748;-69
2021/06/18 05:06:24;;;;;;;15.23;13.77;;;22.50;99.90;;;;;;5114962;28;20184;-69
2021/06/18 05:08:51;;;;;;;14.43;13.03;;;22.50;99.90;;;;;;5115342;28;20384;-69
2021/06/18 05:11:22;;;;;;;16.63;14.23;;;22.60;99.90;;;;;;5114868;28;20404;-69
2021/06/18 05:13:48;;;;;;;15.90;14.30;;;22.60;99.90;;;;;;5115072;28;20400;-69
2021/06/18 05:16:13;;;;;;;17.77;13.60;;;22.70;99.90;;;;;;5114125;28;20480;-69
2021/06/18 05:18:39;;;;;;;16.10;14.50;;;22.70;99.90;;;;;;5114645;28;20194;-69
2021/06/18 05:21:04;;;;;;;16.73;15.23;;;22.70;99.90;;;;;;5114468;28;20550;-69
2021/06/18 05:23:30;;;;;;;15.37;13.87;;;22.80;99.90;;;;;;5113833;28;20200;-69
2021/06/18 05:25:55;;;;;;;16.87;14.07;;;22.80;99.90;;;;;;5115179;28;20206;-69
2021/06/18 05:28:21;;;;;;;16.90;15.20;;;22.90;99.90;;;;;;5114783;28;20159;-69
2021/06/18 05:30:47;;;;;;;16.17;14.70;;;22.90;99.90;;;;;;5114471;28;20186;-69
2021/06/18 05:33:12;;;;;;;15.77;14.17;;;22.90;99.90;;;;;;5113638;28;20601;-69
2021/06/18 05:35:41;;;;;;;17.23;15.60;;;23.00;99.90;;;;;;5114030;28;20154;-69
2021/06/18 05:38:07;;;;;;;14.23;12.80;;;23.10;99.90;;;;;;5114276;28;20177;-69
2021/06/18 05:40:33;;;;;;;14.67;13.00;;;23.10;99.90;;;;;;5114471;28;20436;-69
2021/06/18 05:42:58;;;;;;;14.83;13.33;;;23.20;99.90;;;;;;5114300;28;20172;-69
2021/06/18 05:45:24;;;;;;;14.47;13.07;;;23.20;99.90;;;;;;5114258;28;20208;-69
2021/06/18 05:47:50;;;;;;;17.73;13.70;;;23.30;99.90;;;;;;5114203;28;20153;-69
2021/06/18 05:50:15;;;;;;;12.73;11.53;;;23.30;99.90;;;;;;5113165;28;20174;-69
2021/06/18 05:52:41;;;;;;;14.63;12.20;;;23.40;99.90;;;;;;5114075;28;20154;-69
2021/06/18 05:55:07;;;;;;;13.33;12.13;;;23.40;99.90;;;;;;5114070;28;20218;-69
2021/06/18 05:57:33;;;;;;;12.80;11.60;;;23.50;99.90;;;;;;5114024;28;20525;-69
2021/06/18 05:59:59;;;;;;;13.40;12.40;;;23.50;99.90;;;;;;5113451;28;20479;-69
2021/06/18 06:02:25;;;;;;;14.07;12.70;;;23.60;99.90;;;;;;5113724;28;20964;-69
2021/06/18 06:04:50;;;;;;;13.67;12.20;;;23.70;99.90;;;;;;5113950;28;20544;-69
2021/06/18 06:07:16;;;;;;;13.87;12.40;;;23.70;99.90;;;;;;5113159;28;20177;-69
2021/06/18 06:09:42;;;;;;;12.30;11.20;;;23.80;99.90;;;;;;5114313;28;20163;-69
2021/06/18 06:12:08;;;;;;;12.43;9.80;;;23.90;99.90;;;;;;5113627;28;20158;-69
2021/06/18 06:14:34;;;;;;;9.57;8.60;;;23.90;99.90;;;;;;5113428;28;20775;-69
2021/06/18 06:16:59;;;;;;;7.77;6.83;;;24.00;99.90;;;;;;5113563;28;20673;-69
2021/06/18 06:19:25;;;;;;;10.47;7.93;;;24.10;99.90;;;;;;5113383;28;20150;-69
2021/06/18 06:21:50;;;;;;;11.13;6.63;;;24.10;99.90;;;;;;5113628;28;20154;-69
2021/06/18 06:24:16;;;;;;;7.03;5.70;;;24.20;99.90;;;;;;5113031;28;20674;-69
2021/06/18 06:26:42;;;;;;;10.27;6.70;;;24.20;99.90;;;;;;5113260;28;20568;-69
2021/06/18 06:29:07;;;;;;;4.93;4.00;;;24.20;99.90;;;;;;5113250;28;20178;-69
2021/06/18 06:31:33;;;;;;;4.20;3.80;;;24.30;99.90;;;;;;5113375;28;20158;-69
2021/06/18 06:33:59;;;;;;;6.03;4.90;;;24.30;99.90;;;;;;5112849;28;20169;-69
2021/06/18 06:36:24;;;;;;;6.03;5.43;;;24.40;99.90;;;;;;5113924;28;20205;-69
2021/06/18 06:38:51;;;;;;;10.60;4.80;;;24.60;99.90;;;;;;5113135;28;20274;-69
2021/06/18 06:41:17;;;;;;;8.30;5.57;;;24.80;99.90;;;;;;5104579;28;20177;-70
2021/06/18 06:43:43;;;;;;;4.80;4.40;;;24.90;99.90;;;;;;5113110;28;20475;-70
2021/06/18 06:46:08;;;;;;;4.63;4.23;;;25.00;99.90;;;;;;5113041;28;20420;-69
2021/06/18 06:48:34;;;;;;;5.60;4.50;;;25.20;99.90;;;;;;5112987;28;20634;-69
2021/06/18 06:50:59;;;;;;;4.20;3.30;;;25.30;99.90;;;;;;5113539;28;20515;-70
2021/06/18 06:53:25;;;;;;;6.77;6.20;;;25.40;99.90;;;;;;5113137;28;20277;-70
2021/06/18 06:55:50;;;;;;;3.50;3.20;;;25.40;99.90;;;;;;5112841;28;20170;-70
2021/06/18 06:58:17;;;;;;;7.13;4.50;;;25.60;99.90;;;;;;5112100;28;20188;-70
2021/06/18 07:00:42;;;;;;;3.63;3.07;;;25.70;99.90;;;;;;5112642;28;20205;-70
2021/06/18 07:03:08;;;;;;;5.20;4.70;;;25.80;99.90;;;;;;5112976;28;20778;-69
2021/06/18 07:05:34;;;;;;;5.40;4.73;;;25.80;99.90;;;;;;5113371;28;20174;-70
2021/06/18 07:08:12;;;;;;;6.37;3.80;;;26.00;99.90;;;;;;5112826;28;20449;-70
2021/06/18 07:10:37;;;;;;;5.10;3.20;;;26.10;99.90;;;;;;5112710;28;20161;-70
2021/06/18 07:13:03;;;;;;;4.47;3.83;;;26.20;99.90;;;;;;5112642;28;20400;-70
2021/06/18 07:15:28;;;;;;;4.97;4.17;;;26.30;99.90;;;;;;5111519;28;20544;-70
2021/06/18 07:17:56;;;;;;;2.80;2.60;;;26.40;99.90;;;;;;5112767;28;20615;-70
2021/06/18 07:20:21;;;;;;;7.70;3.90;;;26.60;99.90;;;;;;5112664;28;20186;-70
2021/06/18 07:22:47;;;;;;;5.27;4.77;;;26.80;99.90;;;;;;5112747;28;20411;-70
2021/06/18 07:25:13;;;;;;;3.57;3.30;;;26.90;99.90;;;;;;5112804;28;20167;-70
2021/06/18 07:27:38;;;;;;;6.83;6.07;;;27.40;99.90;;;;;;5112586;28;20173;-70
2021/06/18 07:30:04;;;;;;;5.70;5.30;;;28.20;99.90;;;;;;5112783;28;20189;-70
2021/06/18 07:32:30;;;;;;;6.47;5.97;;;29.20;99.90;;;;;;5111666;28;20174;-70
2021/06/18 07:34:56;;;;;;;9.77;6.20;;;30.30;98.00;;;;;;5112963;28;20400;-70
2021/06/18 07:37:21;;;;;;;11.23;6.20;;;31.30;94.90;;;;;;5112618;28;20582;-70
2021/06/18 07:39:47;;;;;;;7.20;6.17;;;32.30;92.10;;;;;;5112477;28;20194;-70
2021/06/18 07:42:13;;;;;;;7.27;6.57;;;33.40;88.40;;;;;;5112416;28;20175;-70
2021/06/18 07:44:39;;;;;;;8.83;7.37;;;34.30;80.40;;;;;;5112761;28;20775;-69
2021/06/18 07:47:06;;;;;;;8.07;6.80;;;35.10;76.50;;;;;;5114768;28;20166;-68
2021/06/18 07:49:32;;;;;;;7.70;6.77;;;36.10;68.30;;;;;;5115569;28;20174;-68
2021/06/18 07:51:58;;;;;;;6.57;5.97;;;36.90;62.90;;;;;;5116236;28;20401;-68
2021/06/18 07:54:23;;;;;;;7.43;6.73;;;37.60;58.20;;;;;;5116064;28;20882;-68
2021/06/18 07:56:49;;;;;;;7.60;6.90;;;38.20;55.30;;;;;;5115908;28;20169;-68
2021/06/18 07:59:14;;;;;;;6.90;6.27;;;38.80;52.80;;;;;;5115837;28;20196;-68
2021/06/18 08:01:40;;;;;;;8.97;6.90;;;39.30;51.30;;;;;;5116255;28;20653;-68
2021/06/18 08:04:06;;;;;;;7.73;6.90;;;39.80;48.80;;;;;;5116292;28;20177;-68
2021/06/18 08:06:31;;;;;;;6.70;5.77;;;40.20;47.50;;;;;;5115015;28;20173;-68
2021/06/18 08:08:57;;;;;;;7.03;5.47;;;40.60;46.50;;;;;;5115793;28;20278;-68
2021/06/18 08:11:23;;;;;;;7.60;6.10;;;41.00;44.90;;;;;;5114549;28;20168;-68
2021/06/18 08:13:48;;;;;;;7.13;6.47;;;41.30;43.60;;;;;;5116936;28;20150;-68
2021/06/18 08:16:14;;;;;;;5.80;5.30;;;41.30;42.90;;;;;;5116596;28;20240;-68
2021/06/18 08:18:39;;;;;;;8.50;5.37;;;41.10;41.40;;;;;;5116126;28;20185;-68
2021/06/18 08:21:07;;;;;;;7.50;5.07;;;41.10;41.60;;;;;;5115710;28;20550;-68
2021/06/18 08:23:33;;;;;;;7.07;6.40;;;41.50;40.30;;;;;;5114843;28;20173;-68
2021/06/18 08:25:59;;;;;;;8.63;6.20;;;42.40;39.70;;;;;;5115508;28;20481;-68
2021/06/18 08:28:25;;;;;;;7.20;6.50;;;43.30;37.40;;;;;;5116462;28;20162;-68
2021/06/18 08:30:51;;;;;;;5.68;5.07;;;44.00;36.10;;;;;;5115697;28;20170;-68
2021/06/18 08:33:18;;;;;;;5.68;5.18;;;44.80;35.00;;;;;;5115641;28;20158;-68
2021/06/18 08:35:44;;;;;;;8.10;4.90;;;44.90;33.80;;;;;;5115299;28;20227;-68
2021/06/18 08:38:09;;;;;;;6.70;4.63;;;44.40;34.60;;;;;;5115440;28;20158;-68
2021/06/18 08:40:36;;;;;;;6.93;5.13;;;43.70;35.30;;;;;;5105797;28;20197;-68
2021/06/18 08:43:03;;;;;;;8.50;5.60;;;43.00;35.80;;;;;;5115316;28;20248;-68
2021/06/18 08:45:30;;;;;;;6.87;5.90;;;42.70;35.30;;;;;;5115303;28;20161;-68
2021/06/18 08:47:56;;;;;;;6.40;5.80;;;42.60;36.80;;;;;;5115100;28;20173;-68
2021/06/18 08:50:23;;;;;;;7.07;6.53;;;42.20;35.90;;;;;;5115101;28;20439;-68
2021/06/18 08:52:52;;;;;;;8.07;7.07;;;41.60;37.40;;;;;;5115244;28;20195;-68
2021/06/18 08:55:20;;;;;;;6.47;5.83;;;40.50;39.00;;;;;;5115307;28;20399;-71
2021/06/18 08:57:49;;;;;;;10.27;6.00;;;39.40;39.80;;;;;;5115376;28;20411;-71
2021/06/18 09:00:16;;;;;;;7.77;5.97;;;38.40;42.20;;;;;;5115189;28;20462;-69
2021/06/18 09:02:41;;;;;;;14.20;7.40;;;37.50;43.60;;;;;;5114777;28;20889;-69
2021/06/18 09:05:11;;;;;;;7.47;5.80;;;36.60;45.00;;;;;;5114457;28;20399;-68
2021/06/18 09:13:34;;;;;;;8.70;5.90;;;35.30;47.80;;;;;;5141703;27;20663;-69
2021/06/18 09:16:00;;;;;;;6.30;5.80;;;34.00;48.70;;;;;;5111185;28;20396;-69
2021/06/18 09:18:41;;;;;;;13.47;6.83;;;33.60;50.50;;;;;;5110033;28;20465;-69
2021/06/18 09:23:50;;;;;;;6.57;5.77;;;33.40;51.00;;;;;;5147010;27;20383;-69
2021/06/18 09:26:38;;;;;;;10.63;5.53;;;33.30;50.90;;;;;;5129915;28;20590;-69
2021/06/18 09:29:14;;;;;;;7.00;6.23;;;33.20;51.30;;;;;;5129555;28;20414;-71
2021/06/18 09:34:47;;;;;;;14.53;7.37;;;33.10;52.00;;;;;;5146896;27;20296;-68
2021/06/18 09:42:35;;;;;;;8.03;4.40;;;32.70;52.70;;;;;;5147098;27;20296;-70
2021/06/18 09:45:09;;;;;;;7.20;5.73;;;32.20;52.50;;;;;;5131197;28;20922;-70
2021/06/18 09:47:36;;;;;;;13.10;4.90;;;32.10;51.90;;;;;;5121179;27;20845;-70
2021/06/18 09:50:04;;;;;;;9.10;5.07;;;31.90;50.90;;;;;;5110009;28;20408;-70
2021/06/18 09:52:30;;;;;;;7.53;4.60;;;31.80;53.20;;;;;;5110284;28;20451;-70
2021/06/18 09:54:56;;;;;;;6.40;4.47;;;31.60;52.50;;;;;;5110246;28;20392;-70
2021/06/18 09:57:44;;;;;;;7.47;3.13;;;31.50;52.10;;;;;;5111319;28;20178;-70
2021/06/18 10:00:16;;;;;;;4.50;2.83;;;31.30;47.30;;;;;;5110914;28;21228;-70
2021/06/18 10:02:48;;;;;;;4.80;2.77;;;31.20;48.30;;;;;;5111080;28;20415;-70
2021/06/18 10:05:16;;;;;;;8.23;3.30;;;31.10;47.90;;;;;;5109846;28;20476;-70
2021/06/18 10:07:44;;;;;;;7.13;3.60;;;31.10;50.60;;;;;;5110160;28;20759;-70
2021/06/18 10:10:13;;;;;;;12.20;4.40;;;31.20;52.70;;;;;;5109895;28;20795;-70
2021/06/18 10:12:39;;;;;;;8.27;4.10;;;31.20;52.00;;;;;;5109795;28;20444;-70
2021/06/18 10:15:08;;;;;;;8.70;4.30;;;31.20;53.40;;;;;;5110242;28;20456;-70
2021/06/18 10:17:36;;;;;;;7.27;3.90;;;31.30;52.80;;;;;;5109771;28;20391;-70
2021/06/18 10:20:05;;;;;;;11.20;5.27;;;31.40;52.90;;;;;;5109584;28;20416;-70
2021/06/18 10:22:32;;;;;;;4.77;3.90;;;31.50;52.70;;;;;;5108979;28;20419;-70
2021/06/18 10:25:04;;;;;;;10.63;5.83;;;31.70;51.70;;;;;;5109640;28;20388;-70
2021/06/18 10:27:40;;;;;;;4.97;3.90;;;31.90;53.20;;;;;;5109640;28;20405;-70
2021/06/18 10:30:28;;;;;;;10.00;4.47;;;32.00;52.70;;;;;;5109666;28;20385;-70
2021/06/18 10:32:56;;;;;;;5.97;4.30;;;32.10;51.50;;;;;;5108502;28;20454;-70
2021/06/18 10:35:45;;;;;;;5.83;3.90;;;32.20;51.90;;;;;;5109535;28;20388;-70
2021/06/18 10:38:32;;;;;;;6.47;3.80;;;32.20;50.10;;;;;;5103101;28;20472;-70
2021/06/18 10:41:03;;;;;;;5.60;3.53;;;32.10;49.90;;;;;;5092400;28;20464;-70
2021/06/18 10:43:38;;;;;;;5.07;3.80;;;32.00;49.90;;;;;;5129715;28;20483;-70
2021/06/18 10:46:09;;;;;;;8.23;2.77;;;31.90;50.50;;;;;;5130016;28;20482;-70
2021/06/18 10:59:53;;;;;;;8.40;3.70;;;32.50;49.10;;;;;;5132264;27;20299;-70
2021/06/18 11:05:01;;;;;;;3.50;2.33;;;32.60;48.10;;;;;;5147225;27;20302;-69
2021/06/18 11:07:39;;;;;;;3.43;2.57;;;32.30;46.90;;;;;;5131007;28;20473;-69
2021/06/18 11:12:46;;;;;;;7.87;4.10;;;32.10;47.60;;;;;;5136789;27;20282;-69
2021/06/18 11:23:13;;;;;;;5.80;3.27;;;31.80;45.50;;;;;;5147200;27;20839;-70
2021/06/18 11:31:04;;;;;;;6.87;3.37;;;31.40;49.20;;;;;;5128182;27;20294;-69
2021/06/18 11:38:54;;;;;;;2.90;2.00;;;31.20;49.10;;;;;;5147013;27;20293;-70
2021/06/18 11:41:21;;;;;;;4.63;2.73;;;30.90;47.00;;;;;;5125507;28;20497;-70
2021/06/18 11:43:50;;;;;;;9.13;2.70;;;30.90;48.60;;;;;;5110412;28;20473;-70
2021/06/18 11:46:18;;;;;;;2.33;1.63;;;30.80;45.50;;;;;;5104452;28;20507;-70
2021/06/18 11:48:44;;;;;;;2.20;1.77;;;30.80;46.70;;;;;;5089854;28;20390;-70
2021/06/18 11:51:23;;;;;;;2.63;1.80;;;30.70;46.50;;;;;;5090112;28;20446;-70
2021/06/18 11:53:49;;;;;;;3.67;2.67;;;30.70;48.60;;;;;;5090021;28;20639;-70
2021/06/18 11:56:15;;;;;;;4.70;2.10;;;30.60;49.50;;;;;;5089904;28;20421;-70
2021/06/18 11:58:43;;;;;;;5.87;2.47;;;30.50;48.80;;;;;;5089362;28;20475;-70
2021/06/18 12:03:53;;;;;;;5.67;2.27;;;30.50;48.60;;;;;;5135864;27;20761;-70
2021/06/18 12:06:21;;;;;;;2.97;1.83;;;30.40;50.00;;;;;;5110401;28;20528;-70
2021/06/18 12:09:09;;;;;;;6.90;2.50;;;30.30;51.20;;;;;;5110333;28;20877;-70
2021/06/18 12:11:39;;;;;;;4.27;2.50;;;30.20;51.50;;;;;;5109176;28;20507;-70
2021/06/18 12:14:06;;;;;;;1.47;1.37;;;30.10;51.60;;;;;;5110070;28;20545;-70
2021/06/18 12:16:37;;;;;;;1.80;1.70;;;30.00;51.10;;;;;;5110214;28;20746;-70
2021/06/18 12:19:27;;;;;;;1.53;1.43;;;30.00;48.70;;;;;;5110270;28;20392;-70
2021/06/18 12:27:09;;;;;;;2.90;2.60;;;29.90;49.50;;;;;;5146938;27;20750;-69
2021/06/18 12:29:54;;;;;;;2.40;2.20;;;29.60;50.20;;;;;;5130901;28;20391;-69
2021/06/18 12:32:22;;;;;;;3.97;2.63;;;29.50;50.40;;;;;;5131018;28;20380;-69
2021/06/18 12:34:50;;;;;;;4.50;2.33;;;29.50;47.30;;;;;;5131173;28;20581;-70
2021/06/18 12:37:18;;;;;;;2.70;2.23;;;29.70;48.10;;;;;;5124928;28;20407;-70
2021/06/18 12:40:04;;;;;;;2.40;2.20;;;29.70;46.30;;;;;;5128925;28;20468;-70
2021/06/18 12:48:09;;;;;;;2.33;2.00;;;29.60;49.60;;;;;;5147017;27;20312;-70
2021/06/18 12:53:12;;;;;;;4.30;3.03;;;29.60;51.80;;;;;;5147013;27;20301;-69
2021/06/18 12:58:23;;;;;;;3.40;1.63;;;29.50;47.40;;;;;;5146916;27;20381;-69
2021/06/18 13:03:29;;;;;;;1.80;1.70;;;29.50;48.20;;;;;;5147130;27;20346;-71
2021/06/18 13:05:56;;;;;;;3.93;2.27;;;29.50;49.50;;;;;;5130979;28;20756;-70
2021/06/18 13:08:22;;;;;;;1.87;1.77;;;29.50;48.40;;;;;;5130891;28;20474;-71
2021/06/18 13:10:51;;;;;;;3.43;2.90;;;29.60;47.70;;;;;;5128611;28;20418;-70
2021/06/18 13:13:32;;;;;;;2.17;1.97;;;29.60;46.90;;;;;;5110275;28;20396;-70
2021/06/18 13:16:16;;;;;;;2.37;1.77;;;29.60;48.00;;;;;;5110202;28;20420;-70
2021/06/18 13:27:08;;;;;;;2.00;1.70;;;29.40;51.60;;;;;;5146867;27;20293;-70
2021/06/18 13:29:46;;;;;;;2.20;1.53;;;29.20;51.50;;;;;;5114178;28;20416;-70
2021/06/18 13:32:12;;;;;;;1.80;1.47;;;29.10;52.70;;;;;;5110521;28;20412;-70
2021/06/18 13:34:38;;;;;;;2.63;2.43;;;29.00;51.80;;;;;;5110545;28;20395;-70
2021/06/18 13:37:06;;;;;;;2.57;2.00;;;28.90;48.90;;;;;;5110442;28;20185;-70
2021/06/18 13:42:08;;;;;;;3.33;1.80;;;29.00;50.40;;;;;;5146742;27;20742;-69
2021/06/18 13:44:35;;;;;;;3.07;2.10;;;28.90;51.20;;;;;;5130187;28;20398;-69
2021/06/18 13:47:00;;;;;;;2.00;1.80;;;28.80;52.80;;;;;;5110086;28;20205;-69
2021/06/18 13:49:26;;;;;;;2.27;1.93;;;28.70;52.50;;;;;;5110344;28;20420;-69
2021/06/18 13:51:55;;;;;;;3.50;2.50;;;28.80;51.00;;;;;;5110885;28;20171;-70
2021/06/18 13:54:20;;;;;;;3.10;2.60;;;29.00;48.80;;;;;;5110245;28;20219;-70
2021/06/18 13:56:46;;;;;;;5.73;3.30;;;29.10;50.40;;;;;;5110128;28;20388;-70
2021/06/18 13:59:11;;;;;;;7.67;3.53;;;29.00;51.80;;;;;;5110032;28;20410;-70
2021/06/18 14:01:38;;;;;;;4.70;3.07;;;29.10;49.30;;;;;;5108976;28;20182;-70
2021/06/18 14:04:06;;;;;;;4.27;2.43;;;29.30;48.30;;;;;;5109169;28;20566;-70
2021/06/18 14:06:33;;;;;;;2.70;1.50;;;29.60;48.80;;;;;;5110004;28;20416;-70
2021/06/18 14:08:59;;;;;;;3.90;3.23;;;29.60;49.20;;;;;;5110148;28;20399;-70
2021/06/18 14:11:25;;;;;;;3.37;2.30;;;29.70;47.60;;;;;;5109849;28;20392;-70
2021/06/18 14:13:54;;;;;;;3.20;2.43;;;29.80;48.60;;;;;;5109940;28;20384;-70
2021/06/18 14:16:19;;;;;;;6.80;3.53;;;29.80;48.10;;;;;;5110108;28;20388;-70
2021/06/18 14:18:45;;;;;;;3.40;2.30;;;29.80;47.60;;;;;;5109084;28;20479;-70
2021/06/18 14:21:12;;;;;;;4.13;2.50;;;29.90;48.10;;;;;;5109593;28;20236;-70
2021/06/18 14:23:37;;;;;;;5.43;3.10;;;29.90;48.10;;;;;;5109676;28;20151;-70
2021/06/18 14:26:03;;;;;;;3.73;2.53;;;29.90;47.80;;;;;;5109772;28;20457;-70
2021/06/18 14:28:29;;;;;;;3.17;2.13;;;30.00;47.30;;;;;;5109868;28;20583;-70